sensor_id;sensor_type;location;lat;lon;timestamp;P1;durP1;ratioP1;P2;durP2;ratioP2
71290;SDS011;59073;51.994;4.448;2023-05-10T00:01:27;10.21;;;10.14;;
71290;SDS011;59073;51.994;4.448;2023-05-10T00:03:53;10.34;;;10.15;;
71290;SDS011;59073;51.994;4.448;2023-05-10T00:06:18;9.61;;;9.61;;
71290;SDS011;59073;51.994;4.448;2023-05-10T00:08:44;9.66;;;9.63;;
71290;SDS011;59073;51.994;4.448;2023-05-10T00:11:10;8.74;;;8.68;;
71290;SDS011;59073;51.994;4.448;2023-05-10T00:13:35;8.11;;;8.11;;
71290;SDS011;59073;51.994;4.448;2023-05-10T00:16:01;8.42;;;8.42;;
71290;SDS011;59073;51.994;4.448;2023-05-10T00:18:26;10.45;;;10.40;;
71290;SDS011;59073;51.994;4.448;2023-05-10T00:20:52;10.68;;;10.65;;
71290;SDS011;59073;51.994;4.448;2023-05-10T00:23:17;10.34;;;10.34;;
71290;SDS011;59073;51.994;4.448;2023-05-10T00:25:43;11.90;;;11.89;;
71290;SDS011;59073;51.994;4.448;2023-05-10T00:28:08;11.57;;;11.57;;
71290;SDS011;59073;51.994;4.448;2023-05-10T00:30:33;11.38;;;11.30;;
71290;SDS011;59073;51.994;4.448;2023-05-10T00:32:59;10.82;;;10.81;;
71290;SDS011;59073;51.994;4.448;2023-05-10T00:35:25;11.89;;;11.82;;
71290;SDS011;59073;51.994;4.448;2023-05-10T00:37:51;12.23;;;12.19;;
71290;SDS011;59073;51.994;4.448;2023-05-10T00:40:16;13.48;;;13.43;;
71290;SDS011;59073;51.994;4.448;2023-05-10T00:42:42;13.69;;;13.53;;
71290;SDS011;59073;51.994;4.448;2023-05-10T00:45:07;14.35;;;14.22;;
71290;SDS011;59073;51.994;4.448;2023-05-10T00:47:33;14.20;;;14.06;;
71290;SDS011;59073;51.994;4.448;2023-05-10T00:49:59;14.45;;;14.38;;
71290;SDS011;59073;51.994;4.448;2023-05-10T00:52:26;14.47;;;14.34;;
71290;SDS011;59073;51.994;4.448;2023-05-10T00:54:52;15.11;;;15.02;;
71290;SDS011;59073;51.994;4.448;2023-05-10T00:57:19;15.79;;;15.58;;
71290;SDS011;59073;51.994;4.448;2023-05-10T00:59:45;15.59;;;15.40;;
71290;SDS011;59073;51.994;4.448;2023-05-10T01:02:11;14.73;;;14.56;;
71290;SDS011;59073;51.994;4.448;2023-05-10T01:04:38;14.34;;;14.15;;
71290;SDS011;59073;51.994;4.448;2023-05-10T01:07:04;15.25;;;14.93;;
71290;SDS011;59073;51.994;4.448;2023-05-10T01:09:30;15.59;;;15.36;;
71290;SDS011;59073;51.994;4.448;2023-05-10T01:11:56;15.21;;;15.10;;
71290;SDS011;59073;51.994;4.448;2023-05-10T01:14:22;17.20;;;17.04;;
71290;SDS011;59073;51.994;4.448;2023-05-10T01:16:48;17.71;;;17.50;;
71290;SDS011;59073;51.994;4.448;2023-05-10T01:19:28;16.80;;;16.64;;
71290;SDS011;59073;51.994;4.448;2023-05-10T01:22:12;16.64;;;16.43;;
71290;SDS011;59073;51.994;4.448;2023-05-10T01:30:29;14.05;;;13.93;;
71290;SDS011;59073;51.994;4.448;2023-05-10T01:38:42;12.89;;;12.68;;
71290;SDS011;59073;51.994;4.448;2023-05-10T01:43:54;11.17;;;11.10;;
71290;SDS011;59073;51.994;4.448;2023-05-10T01:46:31;10.63;;;10.53;;
71290;SDS011;59073;51.994;4.448;2023-05-10T01:49:02;10.28;;;10.25;;
71290;SDS011;59073;51.994;4.448;2023-05-10T01:51:38;10.95;;;10.90;;
71290;SDS011;59073;51.994;4.448;2023-05-10T01:54:09;10.94;;;10.93;;
71290;SDS011;59073;51.994;4.448;2023-05-10T01:56:39;11.72;;;11.70;;
71290;SDS011;59073;51.994;4.448;2023-05-10T01:59:08;13.09;;;13.06;;
71290;SDS011;59073;51.994;4.448;2023-05-10T02:01:40;12.49;;;12.46;;
71290;SDS011;59073;51.994;4.448;2023-05-10T02:04:07;13.37;;;13.37;;
71290;SDS011;59073;51.994;4.448;2023-05-10T02:06:36;13.63;;;13.58;;
71290;SDS011;59073;51.994;4.448;2023-05-10T02:09:04;13.81;;;13.74;;
71290;SDS011;59073;51.994;4.448;2023-05-10T02:11:32;13.33;;;13.30;;
71290;SDS011;59073;51.994;4.448;2023-05-10T02:13:58;13.70;;;13.67;;
71290;SDS011;59073;51.994;4.448;2023-05-10T02:16:26;13.61;;;13.52;;
71290;SDS011;59073;51.994;4.448;2023-05-10T02:18:55;13.93;;;13.81;;
71290;SDS011;59073;51.994;4.448;2023-05-10T02:21:24;13.99;;;13.86;;
71290;SDS011;59073;51.994;4.448;2023-05-10T02:23:53;13.85;;;13.83;;
71290;SDS011;59073;51.994;4.448;2023-05-10T02:26:20;13.40;;;13.32;;
71290;SDS011;59073;51.994;4.448;2023-05-10T02:28:50;13.35;;;13.34;;
71290;SDS011;59073;51.994;4.448;2023-05-10T02:31:17;13.42;;;13.41;;
71290;SDS011;59073;51.994;4.448;2023-05-10T02:33:44;14.08;;;14.07;;
71290;SDS011;59073;51.994;4.448;2023-05-10T02:36:12;13.74;;;13.70;;
71290;SDS011;59073;51.994;4.448;2023-05-10T02:38:39;13.71;;;13.65;;
71290;SDS011;59073;51.994;4.448;2023-05-10T02:41:06;13.20;;;13.17;;
71290;SDS011;59073;51.994;4.448;2023-05-10T02:43:34;13.13;;;13.05;;
71290;SDS011;59073;51.994;4.448;2023-05-10T02:46:00;13.47;;;13.40;;
71290;SDS011;59073;51.994;4.448;2023-05-10T02:48:27;14.94;;;14.84;;
71290;SDS011;59073;51.994;4.448;2023-05-10T02:50:53;13.77;;;13.68;;
71290;SDS011;59073;51.994;4.448;2023-05-10T02:53:30;13.88;;;13.74;;
71290;SDS011;59073;51.994;4.448;2023-05-10T02:55:58;14.60;;;14.50;;
71290;SDS011;59073;51.994;4.448;2023-05-10T02:58:29;13.88;;;13.83;;
71290;SDS011;59073;51.994;4.448;2023-05-10T03:00:54;14.42;;;14.27;;
71290;SDS011;59073;51.994;4.448;2023-05-10T03:03:20;14.22;;;14.09;;
71290;SDS011;59073;51.994;4.448;2023-05-10T03:05:46;14.10;;;14.08;;
71290;SDS011;59073;51.994;4.448;2023-05-10T03:08:11;13.95;;;13.95;;
71290;SDS011;59073;51.994;4.448;2023-05-10T03:10:39;14.75;;;14.64;;
71290;SDS011;59073;51.994;4.448;2023-05-10T03:13:31;14.32;;;14.32;;
71290;SDS011;59073;51.994;4.448;2023-05-10T03:16:08;12.66;;;12.66;;
71290;SDS011;59073;51.994;4.448;2023-05-10T03:21:38;14.04;;;14.00;;
71290;SDS011;59073;51.994;4.448;2023-05-10T03:24:10;15.17;;;15.16;;
71290;SDS011;59073;51.994;4.448;2023-05-10T03:26:40;15.64;;;15.64;;
71290;SDS011;59073;51.994;4.448;2023-05-10T03:29:09;16.30;;;16.30;;
71290;SDS011;59073;51.994;4.448;2023-05-10T03:31:36;15.12;;;15.12;;
71290;SDS011;59073;51.994;4.448;2023-05-10T03:34:03;14.71;;;14.71;;
71290;SDS011;59073;51.994;4.448;2023-05-10T03:36:28;15.22;;;15.21;;
71290;SDS011;59073;51.994;4.448;2023-05-10T03:38:54;15.76;;;15.69;;
71290;SDS011;59073;51.994;4.448;2023-05-10T03:41:19;16.62;;;16.62;;
71290;SDS011;59073;51.994;4.448;2023-05-10T03:43:45;16.18;;;16.18;;
71290;SDS011;59073;51.994;4.448;2023-05-10T03:46:11;16.11;;;16.11;;
71290;SDS011;59073;51.994;4.448;2023-05-10T03:48:36;14.71;;;14.70;;
71290;SDS011;59073;51.994;4.448;2023-05-10T03:51:01;15.71;;;15.70;;
71290;SDS011;59073;51.994;4.448;2023-05-10T03:53:27;15.36;;;15.35;;
71290;SDS011;59073;51.994;4.448;2023-05-10T03:55:52;16.17;;;16.17;;
71290;SDS011;59073;51.994;4.448;2023-05-10T03:58:18;15.44;;;15.43;;
71290;SDS011;59073;51.994;4.448;2023-05-10T04:00:43;14.68;;;14.56;;
71290;SDS011;59073;51.994;4.448;2023-05-10T04:03:13;15.20;;;15.19;;
71290;SDS011;59073;51.994;4.448;2023-05-10T04:05:39;14.90;;;14.89;;
71290;SDS011;59073;51.994;4.448;2023-05-10T04:08:05;14.59;;;14.52;;
71290;SDS011;59073;51.994;4.448;2023-05-10T04:10:30;14.91;;;14.86;;
71290;SDS011;59073;51.994;4.448;2023-05-10T04:12:56;13.69;;;13.57;;
71290;SDS011;59073;51.994;4.448;2023-05-10T04:15:22;13.85;;;13.64;;
71290;SDS011;59073;51.994;4.448;2023-05-10T04:17:47;12.78;;;12.63;;
71290;SDS011;59073;51.994;4.448;2023-05-10T04:20:13;12.70;;;12.61;;
71290;SDS011;59073;51.994;4.448;2023-05-10T04:22:39;13.36;;;13.24;;
71290;SDS011;59073;51.994;4.448;2023-05-10T04:25:04;12.84;;;12.73;;
71290;SDS011;59073;51.994;4.448;2023-05-10T04:27:31;12.03;;;11.80;;
71290;SDS011;59073;51.994;4.448;2023-05-10T04:29:56;11.35;;;10.90;;
71290;SDS011;59073;51.994;4.448;2023-05-10T04:32:22;13.09;;;12.34;;
71290;SDS011;59073;51.994;4.448;2023-05-10T04:34:48;10.74;;;10.28;;
71290;SDS011;59073;51.994;4.448;2023-05-10T04:37:13;9.88;;;9.28;;
71290;SDS011;59073;51.994;4.448;2023-05-10T04:39:39;9.52;;;8.68;;
71290;SDS011;59073;51.994;4.448;2023-05-10T04:42:04;9.66;;;8.92;;
71290;SDS011;59073;51.994;4.448;2023-05-10T04:44:31;8.40;;;8.00;;
71290;SDS011;59073;51.994;4.448;2023-05-10T04:46:57;9.32;;;8.72;;
71290;SDS011;59073;51.994;4.448;2023-05-10T04:49:22;8.30;;;7.75;;
71290;SDS011;59073;51.994;4.448;2023-05-10T04:51:48;6.81;;;6.41;;
71290;SDS011;59073;51.994;4.448;2023-05-10T04:54:13;5.03;;;4.83;;
71290;SDS011;59073;51.994;4.448;2023-05-10T04:56:39;4.66;;;4.54;;
71290;SDS011;59073;51.994;4.448;2023-05-10T04:59:05;4.28;;;4.21;;
71290;SDS011;59073;51.994;4.448;2023-05-10T05:01:31;3.53;;;3.51;;
71290;SDS011;59073;51.994;4.448;2023-05-10T05:03:56;3.59;;;3.56;;
71290;SDS011;59073;51.994;4.448;2023-05-10T05:06:21;3.20;;;3.17;;
71290;SDS011;59073;51.994;4.448;2023-05-10T05:08:47;2.98;;;2.96;;
71290;SDS011;59073;51.994;4.448;2023-05-10T05:11:14;3.01;;;3.00;;
71290;SDS011;59073;51.994;4.448;2023-05-10T05:13:39;2.65;;;2.65;;
71290;SDS011;59073;51.994;4.448;2023-05-10T05:16:05;2.69;;;2.69;;
71290;SDS011;59073;51.994;4.448;2023-05-10T05:18:30;2.64;;;2.64;;
71290;SDS011;59073;51.994;4.448;2023-05-10T05:20:56;2.34;;;2.34;;
71290;SDS011;59073;51.994;4.448;2023-05-10T05:23:21;2.13;;;2.13;;
71290;SDS011;59073;51.994;4.448;2023-05-10T05:25:51;2.01;;;2.00;;
71290;SDS011;59073;51.994;4.448;2023-05-10T05:28:17;2.09;;;2.08;;
71290;SDS011;59073;51.994;4.448;2023-05-10T05:30:43;2.00;;;2.00;;
71290;SDS011;59073;51.994;4.448;2023-05-10T05:33:08;2.28;;;2.28;;
71290;SDS011;59073;51.994;4.448;2023-05-10T05:35:34;2.34;;;2.34;;
71290;SDS011;59073;51.994;4.448;2023-05-10T05:37:59;2.32;;;2.32;;
71290;SDS011;59073;51.994;4.448;2023-05-10T05:40:24;2.34;;;2.34;;
71290;SDS011;59073;51.994;4.448;2023-05-10T05:42:50;2.17;;;2.17;;
71290;SDS011;59073;51.994;4.448;2023-05-10T05:45:15;2.68;;;2.68;;
71290;SDS011;59073;51.994;4.448;2023-05-10T05:47:41;2.73;;;2.73;;
71290;SDS011;59073;51.994;4.448;2023-05-10T05:50:06;3.05;;;3.05;;
71290;SDS011;59073;51.994;4.448;2023-05-10T05:52:32;3.24;;;3.24;;
71290;SDS011;59073;51.994;4.448;2023-05-10T05:54:57;3.64;;;3.64;;
71290;SDS011;59073;51.994;4.448;2023-05-10T05:57:23;3.79;;;3.79;;
71290;SDS011;59073;51.994;4.448;2023-05-10T05:59:48;3.60;;;3.60;;
71290;SDS011;59073;51.994;4.448;2023-05-10T06:02:14;3.77;;;3.77;;
71290;SDS011;59073;51.994;4.448;2023-05-10T06:04:39;3.51;;;3.51;;
71290;SDS011;59073;51.994;4.448;2023-05-10T06:07:05;3.69;;;3.69;;
71290;SDS011;59073;51.994;4.448;2023-05-10T06:09:30;3.97;;;3.97;;
71290;SDS011;59073;51.994;4.448;2023-05-10T06:11:56;3.88;;;3.88;;
71290;SDS011;59073;51.994;4.448;2023-05-10T06:14:22;3.87;;;3.80;;
71290;SDS011;59073;51.994;4.448;2023-05-10T06:16:47;3.41;;;3.37;;
71290;SDS011;59073;51.994;4.448;2023-05-10T06:19:13;3.37;;;3.37;;
71290;SDS011;59073;51.994;4.448;2023-05-10T06:21:38;3.36;;;3.36;;
71290;SDS011;59073;51.994;4.448;2023-05-10T06:24:04;3.25;;;3.25;;
71290;SDS011;59073;51.994;4.448;2023-05-10T06:26:31;3.22;;;3.22;;
71290;SDS011;59073;51.994;4.448;2023-05-10T06:28:57;3.10;;;3.10;;
71290;SDS011;59073;51.994;4.448;2023-05-10T06:31:22;3.37;;;3.37;;
71290;SDS011;59073;51.994;4.448;2023-05-10T06:33:48;3.14;;;3.14;;
71290;SDS011;59073;51.994;4.448;2023-05-10T06:36:13;3.13;;;3.13;;
71290;SDS011;59073;51.994;4.448;2023-05-10T06:38:39;3.10;;;3.10;;
71290;SDS011;59073;51.994;4.448;2023-05-10T06:41:04;3.25;;;3.25;;
71290;SDS011;59073;51.994;4.448;2023-05-10T06:43:30;3.03;;;3.03;;
71290;SDS011;59073;51.994;4.448;2023-05-10T06:45:56;3.01;;;3.01;;
71290;SDS011;59073;51.994;4.448;2023-05-10T06:48:21;3.41;;;3.41;;
71290;SDS011;59073;51.994;4.448;2023-05-10T06:50:47;3.34;;;3.33;;
71290;SDS011;59073;51.994;4.448;2023-05-10T06:53:12;3.16;;;3.16;;
71290;SDS011;59073;51.994;4.448;2023-05-10T06:55:38;3.22;;;3.22;;
71290;SDS011;59073;51.994;4.448;2023-05-10T06:58:04;3.19;;;3.19;;
71290;SDS011;59073;51.994;4.448;2023-05-10T07:00:30;3.09;;;3.09;;
71290;SDS011;59073;51.994;4.448;2023-05-10T07:02:56;3.54;;;3.54;;
71290;SDS011;59073;51.994;4.448;2023-05-10T07:05:21;3.77;;;3.77;;
71290;SDS011;59073;51.994;4.448;2023-05-10T07:07:46;3.88;;;3.88;;
71290;SDS011;59073;51.994;4.448;2023-05-10T07:10:12;3.94;;;3.94;;
71290;SDS011;59073;51.994;4.448;2023-05-10T07:12:38;4.03;;;4.01;;
71290;SDS011;59073;51.994;4.448;2023-05-10T07:15:04;4.14;;;4.14;;
71290;SDS011;59073;51.994;4.448;2023-05-10T07:17:30;3.80;;;3.80;;
71290;SDS011;59073;51.994;4.448;2023-05-10T07:19:56;3.56;;;3.56;;
71290;SDS011;59073;51.994;4.448;2023-05-10T07:22:21;3.81;;;3.81;;
71290;SDS011;59073;51.994;4.448;2023-05-10T07:24:47;4.02;;;4.02;;
71290;SDS011;59073;51.994;4.448;2023-05-10T07:27:12;3.87;;;3.87;;
71290;SDS011;59073;51.994;4.448;2023-05-10T07:29:38;3.88;;;3.88;;
71290;SDS011;59073;51.994;4.448;2023-05-10T07:32:04;4.02;;;4.01;;
71290;SDS011;59073;51.994;4.448;2023-05-10T07:34:29;4.29;;;4.28;;
71290;SDS011;59073;51.994;4.448;2023-05-10T07:36:57;3.94;;;3.94;;
71290;SDS011;59073;51.994;4.448;2023-05-10T07:39:23;3.91;;;3.91;;
71290;SDS011;59073;51.994;4.448;2023-05-10T07:41:48;3.69;;;3.69;;
71290;SDS011;59073;51.994;4.448;2023-05-10T07:44:14;3.67;;;3.67;;
71290;SDS011;59073;51.994;4.448;2023-05-10T07:46:39;3.80;;;3.80;;
71290;SDS011;59073;51.994;4.448;2023-05-10T07:49:05;3.35;;;3.35;;
71290;SDS011;59073;51.994;4.448;2023-05-10T07:51:30;3.39;;;3.39;;
71290;SDS011;59073;51.994;4.448;2023-05-10T07:53:56;3.34;;;3.33;;
71290;SDS011;59073;51.994;4.448;2023-05-10T07:56:26;3.39;;;3.39;;
71290;SDS011;59073;51.994;4.448;2023-05-10T07:58:57;3.40;;;3.40;;
71290;SDS011;59073;51.994;4.448;2023-05-10T08:01:24;3.35;;;3.35;;
71290;SDS011;59073;51.994;4.448;2023-05-10T08:03:50;3.33;;;3.33;;
71290;SDS011;59073;51.994;4.448;2023-05-10T08:06:19;3.16;;;3.16;;
71290;SDS011;59073;51.994;4.448;2023-05-10T08:08:46;3.38;;;3.38;;
71290;SDS011;59073;51.994;4.448;2023-05-10T08:11:17;3.47;;;3.47;;
71290;SDS011;59073;51.994;4.448;2023-05-10T08:13:43;3.38;;;3.38;;
71290;SDS011;59073;51.994;4.448;2023-05-10T08:16:09;3.51;;;3.51;;
71290;SDS011;59073;51.994;4.448;2023-05-10T08:18:35;3.24;;;3.24;;
71290;SDS011;59073;51.994;4.448;2023-05-10T08:21:02;3.58;;;3.58;;
71290;SDS011;59073;51.994;4.448;2023-05-10T08:23:27;3.11;;;3.11;;
71290;SDS011;59073;51.994;4.448;2023-05-10T08:25:53;2.92;;;2.92;;
71290;SDS011;59073;51.994;4.448;2023-05-10T08:28:18;2.67;;;2.67;;
71290;SDS011;59073;51.994;4.448;2023-05-10T08:30:43;2.84;;;2.84;;
71290;SDS011;59073;51.994;4.448;2023-05-10T08:33:09;2.76;;;2.76;;
71290;SDS011;59073;51.994;4.448;2023-05-10T08:35:34;2.62;;;2.62;;
71290;SDS011;59073;51.994;4.448;2023-05-10T08:38:00;2.42;;;2.42;;
71290;SDS011;59073;51.994;4.448;2023-05-10T08:40:26;2.77;;;2.77;;
71290;SDS011;59073;51.994;4.448;2023-05-10T08:42:57;2.27;;;2.27;;
71290;SDS011;59073;51.994;4.448;2023-05-10T08:45:31;2.61;;;2.61;;
71290;SDS011;59073;51.994;4.448;2023-05-10T08:48:02;3.00;;;3.00;;
71290;SDS011;59073;51.994;4.448;2023-05-10T08:50:30;2.73;;;2.73;;
71290;SDS011;59073;51.994;4.448;2023-05-10T08:52:57;2.68;;;2.68;;
71290;SDS011;59073;51.994;4.448;2023-05-10T08:55:26;2.80;;;2.80;;
71290;SDS011;59073;51.994;4.448;2023-05-10T08:57:53;2.87;;;2.87;;
71290;SDS011;59073;51.994;4.448;2023-05-10T09:00:18;2.39;;;2.39;;
71290;SDS011;59073;51.994;4.448;2023-05-10T09:02:45;2.78;;;2.78;;
71290;SDS011;59073;51.994;4.448;2023-05-10T09:05:13;2.71;;;2.71;;
71290;SDS011;59073;51.994;4.448;2023-05-10T09:07:41;2.59;;;2.59;;
71290;SDS011;59073;51.994;4.448;2023-05-10T09:10:06;2.19;;;2.19;;
71290;SDS011;59073;51.994;4.448;2023-05-10T09:12:34;2.34;;;2.34;;
71290;SDS011;59073;51.994;4.448;2023-05-10T09:15:00;2.12;;;2.12;;
71290;SDS011;59073;51.994;4.448;2023-05-10T09:17:27;2.66;;;2.66;;
71290;SDS011;59073;51.994;4.448;2023-05-10T09:19:58;2.96;;;2.96;;
71290;SDS011;59073;51.994;4.448;2023-05-10T09:22:24;3.19;;;3.19;;
71290;SDS011;59073;51.994;4.448;2023-05-10T09:27:39;3.72;;;3.72;;
71290;SDS011;59073;51.994;4.448;2023-05-10T09:30:06;3.79;;;3.79;;
71290;SDS011;59073;51.994;4.448;2023-05-10T09:32:36;3.94;;;3.94;;
71290;SDS011;59073;51.994;4.448;2023-05-10T09:35:25;4.05;;;4.04;;
71290;SDS011;59073;51.994;4.448;2023-05-10T09:37:54;4.12;;;4.11;;
71290;SDS011;59073;51.994;4.448;2023-05-10T09:40:25;3.94;;;3.94;;
71290;SDS011;59073;51.994;4.448;2023-05-10T09:45:20;3.47;;;3.47;;
71290;SDS011;59073;51.994;4.448;2023-05-10T09:47:47;3.41;;;3.41;;
71290;SDS011;59073;51.994;4.448;2023-05-10T09:50:13;3.18;;;3.18;;
71290;SDS011;59073;51.994;4.448;2023-05-10T09:52:52;3.35;;;3.35;;
71290;SDS011;59073;51.994;4.448;2023-05-10T09:55:25;3.40;;;3.40;;
71290;SDS011;59073;51.994;4.448;2023-05-10T09:58:03;3.35;;;3.35;;
71290;SDS011;59073;51.994;4.448;2023-05-10T10:00:34;3.33;;;3.33;;
71290;SDS011;59073;51.994;4.448;2023-05-10T10:03:02;3.13;;;3.13;;
71290;SDS011;59073;51.994;4.448;2023-05-10T10:05:29;3.00;;;3.00;;
71290;SDS011;59073;51.994;4.448;2023-05-10T10:07:56;3.20;;;3.20;;
71290;SDS011;59073;51.994;4.448;2023-05-10T10:10:26;2.97;;;2.97;;
71290;SDS011;59073;51.994;4.448;2023-05-10T10:12:53;3.13;;;3.13;;
71290;SDS011;59073;51.994;4.448;2023-05-10T10:15:23;3.07;;;3.07;;
71290;SDS011;59073;51.994;4.448;2023-05-10T10:17:49;3.38;;;3.38;;
71290;SDS011;59073;51.994;4.448;2023-05-10T10:20:17;3.35;;;3.35;;
71290;SDS011;59073;51.994;4.448;2023-05-10T10:22:44;3.54;;;3.54;;
71290;SDS011;59073;51.994;4.448;2023-05-10T10:25:11;3.31;;;3.31;;
71290;SDS011;59073;51.994;4.448;2023-05-10T10:27:45;3.48;;;3.48;;
71290;SDS011;59073;51.994;4.448;2023-05-10T10:30:25;3.49;;;3.49;;
71290;SDS011;59073;51.994;4.448;2023-05-10T10:35:31;3.75;;;3.75;;
71290;SDS011;59073;51.994;4.448;2023-05-10T10:37:58;3.56;;;3.56;;
71290;SDS011;59073;51.994;4.448;2023-05-10T10:40:32;2.87;;;2.87;;
71290;SDS011;59073;51.994;4.448;2023-05-10T10:45:59;2.81;;;2.81;;
71290;SDS011;59073;51.994;4.448;2023-05-10T10:48:49;2.54;;;2.54;;
71290;SDS011;59073;51.994;4.448;2023-05-10T10:51:36;2.81;;;2.81;;
71290;SDS011;59073;51.994;4.448;2023-05-10T10:54:09;3.12;;;3.12;;
71290;SDS011;59073;51.994;4.448;2023-05-10T10:56:35;3.25;;;3.25;;
71290;SDS011;59073;51.994;4.448;2023-05-10T10:59:01;3.68;;;3.68;;
71290;SDS011;59073;51.994;4.448;2023-05-10T11:01:26;3.90;;;3.90;;
71290;SDS011;59073;51.994;4.448;2023-05-10T11:06:31;3.87;;;3.87;;
71290;SDS011;59073;51.994;4.448;2023-05-10T11:08:59;3.68;;;3.68;;
71290;SDS011;59073;51.994;4.448;2023-05-10T11:11:31;3.69;;;3.69;;
71290;SDS011;59073;51.994;4.448;2023-05-10T11:14:02;4.04;;;4.04;;
71290;SDS011;59073;51.994;4.448;2023-05-10T11:16:29;4.04;;;4.04;;
71290;SDS011;59073;51.994;4.448;2023-05-10T11:19:08;4.12;;;4.12;;
71290;SDS011;59073;51.994;4.448;2023-05-10T11:21:44;3.70;;;3.70;;
71290;SDS011;59073;51.994;4.448;2023-05-10T11:24:14;3.43;;;3.43;;
71290;SDS011;59073;51.994;4.448;2023-05-10T11:26:49;2.93;;;2.93;;
71290;SDS011;59073;51.994;4.448;2023-05-10T11:29:16;2.76;;;2.76;;
71290;SDS011;59073;51.994;4.448;2023-05-10T11:31:42;2.84;;;2.84;;
71290;SDS011;59073;51.994;4.448;2023-05-10T11:34:10;3.13;;;3.13;;
71290;SDS011;59073;51.994;4.448;2023-05-10T11:36:36;2.95;;;2.95;;
71290;SDS011;59073;51.994;4.448;2023-05-10T11:39:02;3.00;;;3.00;;
71290;SDS011;59073;51.994;4.448;2023-05-10T11:41:29;3.09;;;3.09;;
71290;SDS011;59073;51.994;4.448;2023-05-10T11:43:56;3.09;;;3.09;;
71290;SDS011;59073;51.994;4.448;2023-05-10T11:46:24;3.12;;;3.11;;
71290;SDS011;59073;51.994;4.448;2023-05-10T11:48:52;3.36;;;3.35;;
71290;SDS011;59073;51.994;4.448;2023-05-10T11:51:22;3.60;;;3.60;;
71290;SDS011;59073;51.994;4.448;2023-05-10T11:53:50;3.49;;;3.48;;
71290;SDS011;59073;51.994;4.448;2023-05-10T11:56:18;3.53;;;3.52;;
71290;SDS011;59073;51.994;4.448;2023-05-10T11:58:43;3.41;;;3.38;;
71290;SDS011;59073;51.994;4.448;2023-05-10T12:01:09;3.32;;;3.31;;
71290;SDS011;59073;51.994;4.448;2023-05-10T12:03:35;3.26;;;3.26;;
71290;SDS011;59073;51.994;4.448;2023-05-10T12:06:02;3.39;;;3.39;;
71290;SDS011;59073;51.994;4.448;2023-05-10T12:08:29;3.51;;;3.51;;
71290;SDS011;59073;51.994;4.448;2023-05-10T12:11:06;3.56;;;3.56;;
71290;SDS011;59073;51.994;4.448;2023-05-10T12:13:37;3.97;;;3.97;;
71290;SDS011;59073;51.994;4.448;2023-05-10T12:18:51;3.06;;;3.06;;
71290;SDS011;59073;51.994;4.448;2023-05-10T12:21:18;3.09;;;3.09;;
71290;SDS011;59073;51.994;4.448;2023-05-10T12:23:46;3.15;;;3.15;;
71290;SDS011;59073;51.994;4.448;2023-05-10T12:26:14;3.27;;;3.27;;
71290;SDS011;59073;51.994;4.448;2023-05-10T12:28:40;3.77;;;3.77;;
71290;SDS011;59073;51.994;4.448;2023-05-10T12:31:06;3.53;;;3.53;;
71290;SDS011;59073;51.994;4.448;2023-05-10T12:33:35;3.53;;;3.53;;
71290;SDS011;59073;51.994;4.448;2023-05-10T12:36:08;3.30;;;3.30;;
71290;SDS011;59073;51.994;4.448;2023-05-10T12:38:36;3.31;;;3.31;;
71290;SDS011;59073;51.994;4.448;2023-05-10T12:41:08;2.99;;;2.99;;
71290;SDS011;59073;51.994;4.448;2023-05-10T12:43:35;3.41;;;3.41;;
71290;SDS011;59073;51.994;4.448;2023-05-10T12:46:05;3.25;;;3.25;;
71290;SDS011;59073;51.994;4.448;2023-05-10T12:48:38;3.04;;;3.04;;
71290;SDS011;59073;51.994;4.448;2023-05-10T12:51:05;3.21;;;3.19;;
71290;SDS011;59073;51.994;4.448;2023-05-10T12:53:34;3.09;;;3.06;;
71290;SDS011;59073;51.994;4.448;2023-05-10T12:56:00;2.73;;;2.72;;
71290;SDS011;59073;51.994;4.448;2023-05-10T12:58:26;2.46;;;2.46;;
71290;SDS011;59073;51.994;4.448;2023-05-10T13:00:51;2.50;;;2.50;;
71290;SDS011;59073;51.994;4.448;2023-05-10T13:03:17;2.40;;;2.39;;
71290;SDS011;59073;51.994;4.448;2023-05-10T13:05:43;2.65;;;2.65;;
71290;SDS011;59073;51.994;4.448;2023-05-10T13:08:08;2.78;;;2.78;;
71290;SDS011;59073;51.994;4.448;2023-05-10T13:10:34;2.47;;;2.47;;
71290;SDS011;59073;51.994;4.448;2023-05-10T13:12:59;2.52;;;2.52;;
71290;SDS011;59073;51.994;4.448;2023-05-10T13:15:25;2.51;;;2.51;;
71290;SDS011;59073;51.994;4.448;2023-05-10T13:17:51;2.36;;;2.36;;
71290;SDS011;59073;51.994;4.448;2023-05-10T13:20:17;2.35;;;2.35;;
71290;SDS011;59073;51.994;4.448;2023-05-10T13:22:43;2.59;;;2.59;;
71290;SDS011;59073;51.994;4.448;2023-05-10T13:25:09;2.29;;;2.29;;
71290;SDS011;59073;51.994;4.448;2023-05-10T13:27:35;2.53;;;2.53;;
71290;SDS011;59073;51.994;4.448;2023-05-10T13:30:01;2.62;;;2.62;;
71290;SDS011;59073;51.994;4.448;2023-05-10T13:32:28;2.65;;;2.65;;
71290;SDS011;59073;51.994;4.448;2023-05-10T13:34:54;3.04;;;3.04;;
71290;SDS011;59073;51.994;4.448;2023-05-10T13:37:20;2.91;;;2.91;;
71290;SDS011;59073;51.994;4.448;2023-05-10T13:39:45;2.87;;;2.87;;
71290;SDS011;59073;51.994;4.448;2023-05-10T13:42:11;2.82;;;2.82;;
71290;SDS011;59073;51.994;4.448;2023-05-10T13:44:36;2.75;;;2.75;;
71290;SDS011;59073;51.994;4.448;2023-05-10T13:47:03;2.57;;;2.57;;
71290;SDS011;59073;51.994;4.448;2023-05-10T13:49:29;2.85;;;2.85;;
71290;SDS011;59073;51.994;4.448;2023-05-10T13:51:54;2.57;;;2.57;;
71290;SDS011;59073;51.994;4.448;2023-05-10T13:54:20;2.63;;;2.63;;
71290;SDS011;59073;51.994;4.448;2023-05-10T13:56:47;2.53;;;2.53;;
71290;SDS011;59073;51.994;4.448;2023-05-10T13:59:13;2.61;;;2.61;;
71290;SDS011;59073;51.994;4.448;2023-05-10T14:01:39;2.68;;;2.68;;
71290;SDS011;59073;51.994;4.448;2023-05-10T14:04:05;2.64;;;2.64;;
71290;SDS011;59073;51.994;4.448;2023-05-10T14:06:31;2.44;;;2.44;;
71290;SDS011;59073;51.994;4.448;2023-05-10T14:08:57;2.53;;;2.53;;
71290;SDS011;59073;51.994;4.448;2023-05-10T14:11:22;2.75;;;2.75;;
71290;SDS011;59073;51.994;4.448;2023-05-10T14:13:48;2.86;;;2.86;;
71290;SDS011;59073;51.994;4.448;2023-05-10T14:16:13;3.26;;;3.26;;
71290;SDS011;59073;51.994;4.448;2023-05-10T14:18:39;3.10;;;3.10;;
71290;SDS011;59073;51.994;4.448;2023-05-10T14:21:05;3.27;;;3.27;;
71290;SDS011;59073;51.994;4.448;2023-05-10T14:23:31;3.14;;;3.14;;
71290;SDS011;59073;51.994;4.448;2023-05-10T14:25:56;3.09;;;3.09;;
71290;SDS011;59073;51.994;4.448;2023-05-10T14:28:22;3.32;;;3.32;;
71290;SDS011;59073;51.994;4.448;2023-05-10T14:30:48;3.14;;;3.14;;
71290;SDS011;59073;51.994;4.448;2023-05-10T14:33:14;2.51;;;2.51;;
71290;SDS011;59073;51.994;4.448;2023-05-10T14:35:41;2.81;;;2.81;;
71290;SDS011;59073;51.994;4.448;2023-05-10T14:38:07;2.73;;;2.73;;
71290;SDS011;59073;51.994;4.448;2023-05-10T14:40:32;2.65;;;2.65;;
71290;SDS011;59073;51.994;4.448;2023-05-10T14:42:58;2.81;;;2.81;;
71290;SDS011;59073;51.994;4.448;2023-05-10T14:45:23;3.09;;;3.09;;
71290;SDS011;59073;51.994;4.448;2023-05-10T14:47:49;2.92;;;2.92;;
71290;SDS011;59073;51.994;4.448;2023-05-10T14:50:15;3.02;;;3.02;;
71290;SDS011;59073;51.994;4.448;2023-05-10T14:52:42;2.66;;;2.66;;
71290;SDS011;59073;51.994;4.448;2023-05-10T14:55:08;3.24;;;3.24;;
71290;SDS011;59073;51.994;4.448;2023-05-10T14:57:33;2.67;;;2.67;;
71290;SDS011;59073;51.994;4.448;2023-05-10T14:59:59;2.86;;;2.86;;
71290;SDS011;59073;51.994;4.448;2023-05-10T15:02:24;2.84;;;2.84;;
71290;SDS011;59073;51.994;4.448;2023-05-10T15:04:50;2.69;;;2.69;;
71290;SDS011;59073;51.994;4.448;2023-05-10T15:07:16;2.53;;;2.53;;
71290;SDS011;59073;51.994;4.448;2023-05-10T15:09:43;2.18;;;2.18;;
71290;SDS011;59073;51.994;4.448;2023-05-10T15:12:09;2.32;;;2.32;;
71290;SDS011;59073;51.994;4.448;2023-05-10T15:14:35;2.45;;;2.45;;